Time;durP1;ratioP1;P1;durP2;ratioP2;P2;SDS_P1;SDS_P2;PMS_P1;PMS_P2;Temp;Humidity;BMP_temperature;BMP_pressure;BME280_temperature;BME280_humidity;BME280_pressure;Samples;Min_cycle;Max_cycle;Signal;HPM_P1;HPM_P2
2023/08/11 00:01:59;;;;;;;4.40;1.83;;;;;;;19.10;65.78;102176.81;7398842;19;20040;-59
2023/08/11 00:04:26;;;;;;;4.95;1.70;;;;;;;19.14;65.74;102172.84;7399173;19;20043;-58
2023/08/11 00:06:55;;;;;;;6.25;1.95;;;;;;;19.17;65.42;102169.91;7398036;19;20015;-53
2023/08/11 00:09:23;;;;;;;6.03;2.20;;;;;;;19.18;65.29;102179.66;7396625;19;20014;-58
2023/08/11 00:11:51;;;;;;;3.65;1.70;;;;;;;19.18;65.09;102173.44;7398913;19;20014;-56
2023/08/11 00:14:19;;;;;;;6.78;1.88;;;;;;;19.22;65.20;102172.19;7398335;19;20014;-55
2023/08/11 00:16:46;;;;;;;3.35;1.40;;;;;;;19.19;64.93;102178.69;7399064;19;20018;-56
2023/08/11 00:19:13;;;;;;;4.43;1.50;;;;;;;19.19;65.05;102172.44;7393731;19;20575;-50
2023/08/11 00:21:41;;;;;;;5.00;1.52;;;;;;;19.17;64.75;102171.75;7396124;19;20019;-56
2023/08/11 00:24:09;;;;;;;8.27;1.90;;;;;;;19.21;65.16;102170.50;7396016;19;20014;-57
2023/08/11 00:26:36;;;;;;;5.15;1.77;;;;;;;19.22;65.37;102169.50;7395736;19;20211;-59
2023/08/11 00:29:04;;;;;;;7.68;1.98;;;;;;;19.23;64.82;102169.38;7393262;19;20021;-52
2023/08/11 00:31:32;;;;;;;6.13;2.35;;;;;;;19.24;64.47;102164.84;7395609;19;20040;-54
2023/08/11 00:33:59;;;;;;;5.13;1.80;;;;;;;19.18;64.57;102163.53;7395405;19;20022;-57
2023/08/11 00:36:27;;;;;;;6.57;2.03;;;;;;;19.18;64.94;102152.81;7395131;19;20030;-58
2023/08/11 00:39:00;;;;;;;4.60;1.80;;;;;;;19.21;65.08;102160.59;7393737;19;20019;-58
2023/08/11 00:41:28;;;;;;;7.03;1.70;;;;;;;19.19;65.20;102159.91;7395266;19;20496;-57
2023/08/11 00:43:55;;;;;;;4.63;1.70;;;;;;;19.18;64.86;102162.69;7395384;19;20023;-59
2023/08/11 00:46:24;;;;;;;3.75;1.80;;;;;;;19.18;65.40;102154.66;7394504;19;20015;-57
2023/08/11 00:48:51;;;;;;;4.00;1.88;;;;;;;19.23;65.11;102160.44;7394341;19;20059;-57
2023/08/11 00:51:22;;;;;;;7.55;1.90;;;;;;;19.23;65.12;102164.00;7395380;19;20049;-56
2023/08/11 00:53:50;;;;;;;6.40;2.10;;;;;;;19.14;65.60;102162.13;7395246;19;20523;-59
2023/08/11 00:56:22;;;;;;;5.60;2.08;;;;;;;19.18;65.00;102163.53;7391636;19;20031;-58
2023/08/11 00:58:50;;;;;;;4.32;1.90;;;;;;;19.16;64.66;102157.47;7393685;19;20361;-59
2023/08/11 01:01:18;;;;;;;5.57;2.20;;;;;;;19.13;64.61;102173.84;7394928;19;20023;-60
2023/08/11 01:03:47;;;;;;;5.53;2.25;;;;;;;19.14;65.03;102167.50;7392956;19;20508;-60
2023/08/11 01:06:31;;;;;;;4.00;1.60;;;;;;;19.21;64.90;102170.50;7393741;19;20026;-59
2023/08/11 01:09:05;;;;;;;6.97;1.95;;;;;;;19.08;65.35;102165.34;7392569;19;20018;-55
2023/08/11 01:11:51;;;;;;;4.97;1.70;;;;;;;19.12;65.84;102161.41;7394163;19;20019;-57
2023/08/11 01:14:31;;;;;;;7.72;1.75;;;;;;;19.08;65.49;102165.34;7394310;19;20040;-58
2023/08/11 01:17:00;;;;;;;6.47;2.20;;;;;;;19.03;65.34;102154.16;7394299;19;20022;-54
2023/08/11 01:19:32;;;;;;;4.93;2.17;;;;;;;19.08;65.11;102156.44;7392382;19;20466;-56
2023/08/11 01:22:03;;;;;;;7.05;2.20;;;;;;;19.14;64.57;102156.75;7394147;19;20018;-54
2023/08/11 01:24:31;;;;;;;8.60;2.30;;;;;;;19.19;64.07;102156.34;7394034;19;20022;-57
2023/08/11 01:26:58;;;;;;;5.63;2.17;;;;;;;19.22;63.63;102154.22;7392649;19;20014;-58
2023/08/11 01:29:26;;;;;;;6.78;1.90;;;;;;;19.21;64.06;102149.00;7392112;19;20019;-56
2023/08/11 01:31:53;;;;;;;5.68;1.92;;;;;;;19.21;63.86;102149.00;7393662;19;20029;-57
2023/08/11 01:34:21;;;;;;;7.32;2.40;;;;;;;19.17;64.25;102147.59;7392752;19;20040;-59
2023/08/11 01:36:55;;;;;;;8.93;2.42;;;;;;;19.21;63.91;102144.47;7391338;19;20496;-58
2023/08/11 01:39:22;;;;;;;7.90;2.30;;;;;;;19.21;63.89;102144.47;7391896;19;20022;-57
2023/08/11 01:41:50;;;;;;;7.78;2.40;;;;;;;19.20;63.61;102132.03;7393833;19;20014;-56
2023/08/11 01:44:18;;;;;;;8.07;2.50;;;;;;;19.21;64.08;102133.75;7393472;19;20018;-58
2023/08/11 01:46:47;;;;;;;5.15;2.10;;;;;;;19.24;63.57;102140.69;7392811;19;20026;-59
2023/08/11 01:49:14;;;;;;;9.45;2.30;;;;;;;19.20;63.65;102131.19;7392531;19;20010;-54
2023/08/11 01:51:42;;;;;;;7.88;2.83;;;;;;;19.20;63.69;102129.38;7391960;19;20019;-55
2023/08/11 01:54:10;;;;;;;6.05;2.08;;;;;;;19.27;63.63;102129.69;7393254;19;20015;-54
2023/08/11 01:56:39;;;;;;;5.13;2.30;;;;;;;19.28;63.40;102134.06;7391083;19;20051;-55
2023/08/11 01:59:12;;;;;;;6.78;1.80;;;;;;;19.30;63.21;102134.75;7391435;19;20015;-55
2023/08/11 02:01:40;;;;;;;4.55;1.75;;;;;;;19.23;63.36;102131.78;7392555;19;20018;-51
2023/08/11 02:04:10;;;;;;;5.95;2.03;;;;;;;19.19;63.62;102132.16;7392411;19;20086;-55
2023/08/11 02:06:39;;;;;;;6.25;2.40;;;;;;;19.13;63.82;102128.19;7392046;19;20081;-54
2023/08/11 02:09:11;;;;;;;5.80;2.20;;;;;;;19.18;63.97;102125.94;7391912;19;20018;-56
2023/08/11 02:11:39;;;;;;;6.40;2.17;;;;;;;19.22;63.47;102126.53;7390815;19;20035;-56
2023/08/11 02:14:06;;;;;;;6.47;2.20;;;;;;;19.21;63.41;102125.69;7393201;19;20023;-54
2023/08/11 02:16:35;;;;;;;6.05;2.40;;;;;;;19.19;63.24;102118.72;7389969;19;20054;-58
2023/08/11 02:19:04;;;;;;;7.00;2.20;;;;;;;19.20;63.25;102123.16;7390893;19;20014;-57
2023/08/11 02:21:33;;;;;;;7.07;2.40;;;;;;;19.21;63.19;102124.84;7391192;19;20041;-58
2023/08/11 02:24:00;;;;;;;5.68;2.38;;;;;;;19.23;63.14;102120.16;7392147;19;20043;-54
2023/08/11 02:26:28;;;;;;;10.43;2.63;;;;;;;19.26;63.18;102119.06;7391571;19;20052;-50
2023/08/11 02:28:55;;;;;;;5.35;2.25;;;;;;;19.24;63.35;102109.31;7390787;19;20040;-51
2023/08/11 02:31:23;;;;;;;6.28;2.13;;;;;;;19.26;63.43;102111.84;7390268;19;20014;-54
2023/08/11 02:33:50;;;;;;;6.13;2.40;;;;;;;19.29;63.62;102110.72;7390726;19;20049;-51
2023/08/11 02:36:20;;;;;;;6.47;2.30;;;;;;;19.29;63.44;102108.03;7389723;19;20014;-58
2023/08/11 02:38:47;;;;;;;6.60;2.70;;;;;;;19.30;63.10;102098.97;7390435;19;20018;-58
2023/08/11 02:41:14;;;;;;;7.25;2.70;;;;;;;19.28;63.51;102100.97;7391570;19;20022;-55
2023/08/11 02:43:42;;;;;;;6.47;2.15;;;;;;;19.21;63.53;102106.88;7391553;19;20018;-57
2023/08/11 02:46:09;;;;;;;5.07;2.58;;;;;;;19.24;63.72;102100.41;7392995;19;20018;-58
2023/08/11 02:48:40;;;;;;;6.50;2.40;;;;;;;19.22;63.71;102103.19;7386122;19;20064;-57
2023/08/11 02:51:08;;;;;;;4.25;2.33;;;;;;;19.16;64.19;102106.44;7390132;19;20018;-55
2023/08/11 02:53:35;;;;;;;6.80;2.45;;;;;;;19.21;64.08;102103.34;7390725;19;20059;-58
2023/08/11 02:56:06;;;;;;;8.00;2.80;;;;;;;19.19;64.25;102092.75;7389099;19;20018;-58
2023/08/11 02:58:34;;;;;;;4.93;2.33;;;;;;;19.16;63.91;102102.91;7388776;19;20121;-57
2023/08/11 03:01:03;;;;;;;5.97;2.47;;;;;;;19.21;64.01;102104.19;7391324;19;20022;-57
2023/08/11 03:03:30;;;;;;;6.80;2.70;;;;;;;19.20;64.02;102107.03;7390413;19;20398;-55
2023/08/11 03:05:58;;;;;;;7.28;2.60;;;;;;;19.22;64.19;102103.19;7390198;19;20023;-56
2023/08/11 03:08:25;;;;;;;6.45;2.50;;;;;;;19.20;64.07;102099.81;7390135;19;20025;-58
2023/08/11 03:10:53;;;;;;;8.85;2.90;;;;;;;19.21;64.21;102106.88;7390214;19;20018;-56
2023/08/11 03:13:23;;;;;;;7.93;3.15;;;;;;;19.21;64.38;102109.56;7390785;19;20028;-55
2023/08/11 03:15:52;;;;;;;6.63;2.60;;;;;;;19.22;64.16;102103.19;7388814;19;20022;-55
2023/08/11 03:18:20;;;;;;;7.72;2.60;;;;;;;19.26;64.44;102111.00;7394165;19;20471;-58
2023/08/11 03:20:47;;;;;;;6.75;2.95;;;;;;;19.21;64.32;102104.19;7390464;19;20086;-56
2023/08/11 03:23:14;;;;;;;6.03;2.35;;;;;;;19.22;64.55;102105.03;7390540;19;20029;-54
2023/08/11 03:25:42;;;;;;;6.60;2.85;;;;;;;19.19;64.31;102105.31;7389912;19;20015;-56
2023/08/11 03:28:09;;;;;;;6.30;2.78;;;;;;;19.20;64.71;102105.19;7389687;19;20015;-52
2023/08/11 03:30:37;;;;;;;7.50;2.80;;;;;;;19.19;64.44;102108.88;7388697;19;20023;-57
2023/08/11 03:33:04;;;;;;;8.10;2.70;;;;;;;19.19;64.14;102108.88;7389350;19;20044;-56
2023/08/11 03:35:32;;;;;;;7.38;2.80;;;;;;;19.20;64.51;102105.19;7389179;19;20018;-57
2023/08/11 03:38:00;;;;;;;6.95;3.00;;;;;;;19.23;64.65;102107.59;7389471;19;20093;-53
2023/08/11 03:40:29;;;;;;;7.90;2.95;;;;;;;19.25;64.69;102115.53;7389789;19;20015;-56
2023/08/11 03:42:57;;;;;;;8.68;2.95;;;;;;;19.24;64.47;102114.66;7389900;19;20019;-57
2023/08/11 03:45:24;;;;;;;5.35;2.78;;;;;;;19.20;64.35;102112.41;7389411;19;20015;-56
2023/08/11 03:47:51;;;;;;;7.22;2.70;;;;;;;19.21;64.45;102119.47;7387359;19;20022;-53
2023/08/11 03:50:19;;;;;;;8.95;3.05;;;;;;;19.20;64.81;102113.25;7388000;19;20048;-53
2023/08/11 03:52:47;;;;;;;6.45;2.92;;;;;;;19.19;64.79;102116.94;7389661;19;20487;-55
2023/08/11 03:55:15;;;;;;;6.57;2.67;;;;;;;19.20;64.51;102115.94;7388648;19;20360;-54
2023/08/11 03:57:45;;;;;;;6.20;2.40;;;;;;;19.24;64.62;102112.00;7388956;19;20048;-55
2023/08/11 04:00:16;;;;;;;8.20;2.90;;;;;;;19.20;64.82;102115.94;7394004;19;20024;-53
2023/08/11 04:02:44;;;;;;;7.45;2.80;;;;;;;19.19;64.98;102105.31;7396654;19;20110;-57
2023/08/11 04:05:12;;;;;;;6.35;2.70;;;;;;;19.17;65.11;102116.19;7396608;19;20750;-57
2023/08/11 04:07:39;;;;;;;7.32;3.05;;;;;;;19.17;64.98;102104.59;7395872;19;20018;-59
2023/08/11 04:10:10;;;;;;;7.15;3.00;;;;;;;19.17;65.41;102104.59;7396666;19;20022;-58
2023/08/11 04:12:38;;;;;;;6.18;2.75;;;;;;;19.18;65.08;102107.16;7397379;19;20035;-57
2023/08/11 04:15:06;;;;;;;8.13;2.95;;;;;;;19.19;65.06;102105.31;7394618;19;20015;-55
2023/08/11 04:17:33;;;;;;;6.82;2.97;;;;;;;19.17;65.48;102108.13;7397255;19;20047;-57
2023/08/11 04:20:10;;;;;;;8.65;3.30;;;;;;;19.16;65.82;102097.53;7396717;19;20035;-57
2023/08/11 04:22:37;;;;;;;6.68;3.03;;;;;;;19.12;65.54;102098.81;7396327;19;20048;-58
2023/08/11 04:25:08;;;;;;;5.65;2.60;;;;;;;19.16;65.89;102106.44;7396466;19;20018;-58
2023/08/11 04:27:35;;;;;;;6.07;2.90;;;;;;;19.14;65.59;102097.66;7394954;19;20019;-57
2023/08/11 04:30:04;;;;;;;7.03;3.10;;;;;;;19.19;65.68;102105.31;7396160;19;20044;-54
2023/08/11 04:32:31;;;;;;;7.55;3.13;;;;;;;19.17;65.48;102105.47;7395817;19;20019;-59
2023/08/11 04:34:59;;;;;;;5.25;2.70;;;;;;;19.18;65.64;102107.16;7396033;19;20022;-54
2023/08/11 04:37:26;;;;;;;6.63;2.75;;;;;;;19.15;66.02;102110.09;7392763;19;20369;-56
2023/08/11 04:39:54;;;;;;;7.88;3.10;;;;;;;19.19;65.91;102110.69;7395570;19;20044;-55
2023/08/11 04:42:21;;;;;;;8.32;3.20;;;;;;;19.15;65.98;102104.72;7395154;19;20029;-56
2023/08/11 04:44:48;;;;;;;8.32;3.60;;;;;;;19.15;65.88;102110.09;7392468;19;20018;-54
2023/08/11 04:47:16;;;;;;;5.85;3.08;;;;;;;19.15;66.29;102104.72;7390385;19;20064;-57
2023/08/11 04:49:43;;;;;;;8.05;3.42;;;;;;;19.11;65.95;102111.34;7391139;19;20022;-57
2023/08/11 04:52:11;;;;;;;6.72;2.90;;;;;;;19.14;66.12;102111.09;7394232;19;20023;-57
2023/08/11 04:54:38;;;;;;;7.72;3.50;;;;;;;19.13;66.21;102101.34;7394714;19;20086;-58
2023/08/11 04:57:05;;;;;;;8.73;3.28;;;;;;;19.15;66.38;102098.50;7389421;19;20022;-58
2023/08/11 04:59:33;;;;;;;7.68;3.15;;;;;;;19.22;66.16;102096.97;7392146;19;20046;-58
2023/08/11 05:02:00;;;;;;;7.57;3.42;;;;;;;19.23;66.33;102096.88;7394900;19;20022;-58
2023/08/11 05:04:28;;;;;;;8.02;3.33;;;;;;;19.24;65.97;102093.19;7395059;19;20026;-58
2023/08/11 05:06:55;;;;;;;9.00;3.35;;;;;;;19.23;65.83;102096.00;7394479;19;20014;-58
2023/08/11 05:09:23;;;;;;;6.47;3.13;;;;;;;19.29;65.81;102092.75;7392422;19;20019;-57
2023/08/11 05:11:51;;;;;;;7.25;2.83;;;;;;;19.31;65.88;102104.25;7392834;19;20113;-57
2023/08/11 05:14:18;;;;;;;9.60;3.50;;;;;;;19.33;66.27;102106.78;7394370;19;20022;-57
2023/08/11 05:16:46;;;;;;;7.85;3.78;;;;;;;19.31;65.91;102103.34;7391855;19;20082;-57
2023/08/11 05:19:13;;;;;;;7.90;3.53;;;;;;;19.24;66.17;102097.72;7394028;19;20044;-58
2023/08/11 05:21:41;;;;;;;9.27;3.33;;;;;;;19.29;66.06;102118.78;7394419;19;20051;-58
2023/08/11 05:24:10;;;;;;;7.63;3.60;;;;;;;19.33;66.20;102122.91;7393833;19;20031;-58
2023/08/11 05:26:38;;;;;;;7.95;3.30;;;;;;;19.32;66.41;102123.88;7393150;19;20018;-58
2023/08/11 05:29:06;;;;;;;6.03;3.20;;;;;;;19.34;66.49;102125.44;7392598;19;20014;-58
2023/08/11 05:31:37;;;;;;;8.20;3.67;;;;;;;19.31;66.33;102122.16;7393813;19;20018;-57
2023/08/11 05:34:04;;;;;;;11.82;4.18;;;;;;;19.32;66.67;102123.88;7393853;19;20022;-58
2023/08/11 05:36:31;;;;;;;8.57;3.60;;;;;;;19.36;66.35;102115.41;7390398;19;20026;-57
2023/08/11 05:38:59;;;;;;;7.63;3.47;;;;;;;19.40;66.12;102107.94;7392264;19;20038;-57
2023/08/11 05:41:26;;;;;;;7.68;3.58;;;;;;;19.39;66.53;102108.94;7393389;19;20047;-57
2023/08/11 05:43:53;;;;;;;7.30;3.83;;;;;;;19.42;66.17;102109.50;7394299;19;20023;-57
2023/08/11 05:46:21;;;;;;;6.22;3.20;;;;;;;19.49;66.19;102109.78;7393040;19;20032;-57
2023/08/11 05:48:50;;;;;;;8.38;3.60;;;;;;;19.54;66.14;102107.53;7392249;19;20041;-56
2023/08/11 05:51:18;;;;;;;10.27;3.85;;;;;;;19.57;66.07;102112.63;7391803;19;20018;-56
2023/08/11 05:53:46;;;;;;;10.00;3.92;;;;;;;19.56;65.98;102104.72;7393540;19;20040;-56
2023/08/11 05:56:15;;;;;;;8.18;3.40;;;;;;;19.55;66.36;102111.94;7392015;19;20074;-56
2023/08/11 05:58:42;;;;;;;7.47;3.45;;;;;;;19.58;66.10;102117.03;7392162;19;20014;-55
2023/08/11 06:01:09;;;;;;;8.43;3.75;;;;;;;19.61;66.02;102113.19;7391609;19;20031;-55
2023/08/11 06:03:37;;;;;;;7.88;3.72;;;;;;;19.65;65.97;102114.66;7389586;19;20599;-56
2023/08/11 06:06:04;;;;;;;10.02;4.05;;;;;;;19.64;66.31;102103.06;7390331;19;20015;-57
2023/08/11 06:08:31;;;;;;;7.03;3.60;;;;;;;19.69;66.20;102095.44;7390236;19;20500;-57
2023/08/11 06:10:59;;;;;;;9.52;3.58;;;;;;;19.80;66.26;102101.66;7391415;19;20563;-58
2023/08/11 06:13:27;;;;;;;10.38;4.00;;;;;;;19.82;65.87;102107.75;7392764;19;20018;-57
2023/08/11 06:15:54;;;;;;;7.28;3.80;;;;;;;19.85;66.01;102111.00;7391684;19;20022;-59
2023/08/11 06:18:22;;;;;;;11.48;4.00;;;;;;;19.85;66.26;102112.84;7395878;19;20029;-57
2023/08/11 06:20:49;;;;;;;8.30;3.72;;;;;;;19.84;66.15;102105.75;7392208;19;20011;-59
2023/08/11 06:23:17;;;;;;;9.27;3.30;;;;;;;19.90;65.92;102111.44;7392579;19;20014;-62
2023/08/11 06:25:44;;;;;;;7.57;3.75;;;;;;;19.88;66.13;102110.75;7391805;19;20022;-63
2023/08/11 06:28:11;;;;;;;9.43;3.47;;;;;;;19.95;65.75;102102.94;7392008;19;20014;-62
2023/08/11 06:30:39;;;;;;;6.80;3.25;;;;;;;19.97;65.50;102106.34;7391920;19;20014;-62
2023/08/11 06:33:06;;;;;;;8.32;3.72;;;;;;;20.00;66.02;102099.84;7392192;19;20090;-59
2023/08/11 06:35:34;;;;;;;8.38;3.80;;;;;;;20.00;65.78;102102.53;7390863;19;20538;-59
2023/08/11 06:38:01;;;;;;;10.80;3.50;;;;;;;20.00;65.86;102097.16;7389927;19;20019;-60
2023/08/11 06:40:29;;;;;;;8.20;3.50;;;;;;;19.98;65.85;102105.34;7390313;19;20027;-57
2023/08/11 06:42:57;;;;;;;8.63;3.65;;;;;;;19.93;65.80;102100.41;7390985;19;20011;-60
2023/08/11 06:45:25;;;;;;;9.65;3.50;;;;;;;19.93;66.11;102103.09;7394517;19;20010;-60
2023/08/11 06:47:52;;;;;;;7.25;3.60;;;;;;;19.95;65.91;102106.47;7391613;19;20017;-56
2023/08/11 06:50:19;;;;;;;7.40;3.88;;;;;;;19.92;66.54;102109.47;7391959;19;20023;-55
2023/08/11 06:52:47;;;;;;;9.32;4.05;;;;;;;19.86;66.35;102114.53;7391483;19;20018;-59
2023/08/11 06:55:14;;;;;;;9.40;3.97;;;;;;;19.82;66.73;102105.91;7391760;19;20023;-60
2023/08/11 06:57:42;;;;;;;8.07;3.33;;;;;;;19.80;66.41;102113.25;7388203;19;20047;-60
2023/08/11 07:00:10;;;;;;;9.07;3.42;;;;;;;19.85;66.44;102115.53;7391664;19;20516;-59
2023/08/11 07:02:37;;;;;;;7.55;3.58;;;;;;;19.85;66.80;102113.69;7393074;19;20104;-57
2023/08/11 07:05:05;;;;;;;7.18;3.80;;;;;;;19.85;66.47;102112.84;7394021;19;20021;-57
2023/08/11 07:07:32;;;;;;;8.25;3.70;;;;;;;19.88;66.33;102105.38;7391563;19;20022;-57
2023/08/11 07:10:00;;;;;;;7.70;3.72;;;;;;;19.90;66.18;102110.59;7391583;19;20011;-58
2023/08/11 07:12:30;;;;;;;7.07;3.53;;;;;;;19.89;66.71;102106.22;7394183;19;20036;-58
2023/08/11 07:14:58;;;;;;;9.57;4.18;;;;;;;19.95;66.45;102108.31;7394831;19;20014;-59
2023/08/11 07:17:25;;;;;;;6.75;3.58;;;;;;;20.04;66.62;102118.25;7391906;19;20018;-59
2023/08/11 07:19:52;;;;;;;9.40;3.95;;;;;;;20.07;66.45;102120.66;7388808;19;20039;-60
2023/08/11 07:22:20;;;;;;;9.98;3.58;;;;;;;20.10;66.16;102112.28;7389106;19;20476;-60
2023/08/11 07:24:47;;;;;;;7.78;3.60;;;;;;;20.15;65.88;102114.56;7390950;19;20041;-60
2023/08/11 07:27:14;;;;;;;7.13;3.20;;;;;;;20.18;65.84;102116.94;7388281;19;20014;-60
2023/08/11 07:29:45;;;;;;;6.05;2.75;;;;;;;20.19;65.45;102116.81;7388128;19;20014;-60
2023/08/11 07:32:13;;;;;;;7.55;2.90;;;;;;;20.28;65.24;102120.47;7388480;19;20597;-60
2023/08/11 07:34:40;;;;;;;5.53;3.00;;;;;;;20.33;65.08;102120.91;7392774;19;20018;-60
2023/08/11 07:37:08;;;;;;;6.13;2.60;;;;;;;20.39;65.10;102120.34;7396084;19;20102;-60
2023/08/11 07:39:36;;;;;;;4.75;2.30;;;;;;;20.44;64.58;102114.50;7395256;19;20018;-60
2023/08/11 07:42:03;;;;;;;4.07;2.22;;;;;;;20.49;64.72;102111.38;7397367;19;20043;-60
2023/08/11 07:44:32;;;;;;;5.50;2.03;;;;;;;20.52;63.90;102111.97;7397718;19;20018;-60
2023/08/11 07:47:03;;;;;;;7.95;1.98;;;;;;;20.55;64.17;102109.00;7396498;19;20014;-60
2023/08/11 07:49:31;;;;;;;5.00;2.53;;;;;;;20.59;63.96;102107.72;7394071;19;20048;-60
2023/08/11 07:51:58;;;;;;;3.72;1.98;;;;;;;20.65;63.74;102111.69;7394718;19;20345;-60
2023/08/11 07:54:26;;;;;;;5.70;2.13;;;;;;;20.67;64.01;102099.75;7397536;19;20022;-60
2023/08/11 07:56:53;;;;;;;6.68;2.30;;;;;;;20.71;63.81;102104.84;7395482;19;20019;-60
2023/08/11 07:59:21;;;;;;;3.30;1.75;;;;;;;20.78;63.69;102103.28;7395056;19;20014;-60
2023/08/11 08:01:51;;;;;;;4.63;1.70;;;;;;;20.84;64.10;102097.31;7397205;19;20023;-60
2023/08/11 08:04:19;;;;;;;3.75;1.67;;;;;;;20.91;63.51;102104.66;7396557;19;20039;-60
2023/08/11 08:06:47;;;;;;;5.13;1.65;;;;;;;20.93;63.46;102101.81;7396041;19;20051;-60
2023/08/11 08:09:14;;;;;;;2.83;1.50;;;;;;;20.97;63.15;102100.50;7394233;19;20024;-60
2023/08/11 08:11:43;;;;;;;2.50;1.48;;;;;;;21.02;62.93;102100.91;7396917;19;20011;-60
2023/08/11 08:14:12;;;;;;;3.97;1.60;;;;;;;21.06;63.04;102094.25;7395691;19;20025;-61
2023/08/11 08:16:44;;;;;;;4.57;1.83;;;;;;;21.12;62.94;102096.31;7396477;19;20013;-61
2023/08/11 08:19:14;;;;;;;2.38;1.25;;;;;;;21.15;63.08;102097.88;7394835;19;20026;-60
2023/08/11 08:21:42;;;;;;;3.42;1.23;;;;;;;21.21;62.53;102086.50;7395608;19;20014;-60
2023/08/11 08:24:11;;;;;;;6.25;1.50;;;;;;;21.27;62.07;102085.91;7396495;19;20035;-60
2023/08/11 08:26:38;;;;;;;2.53;1.20;;;;;;;21.30;61.63;102088.31;7394788;19;20014;-60
2023/08/11 08:29:06;;;;;;;1.75;1.10;;;;;;;21.32;61.63;102097.06;7394381;19;20022;-60
2023/08/11 08:31:33;;;;;;;1.80;1.08;;;;;;;21.37;61.03;102104.75;7395300;19;20046;-60
2023/08/11 08:34:01;;;;;;;2.75;1.00;;;;;;;21.40;60.03;102097.19;7396615;19;20102;-60
2023/08/11 08:36:29;;;;;;;2.28;1.10;;;;;;;21.41;59.62;102098.06;7394875;19;20018;-59
2023/08/11 08:38:56;;;;;;;3.72;1.05;;;;;;;21.51;59.79;102096.13;7391353;19;20022;-58
2023/08/11 08:41:29;;;;;;;3.90;1.17;;;;;;;21.60;59.86;102103.34;7395555;19;20046;-59
2023/08/11 08:44:00;;;;;;;3.10;1.27;;;;;;;21.57;59.68;102094.69;7395396;19;20025;-60
2023/08/11 08:46:29;;;;;;;3.03;1.13;;;;;;;21.61;59.61;102096.09;7390925;19;20010;-61
2023/08/11 08:49:20;;;;;;;1.90;1.05;;;;;;;21.67;59.12;102092.75;7393544;19;20022;-59
2023/08/11 08:51:48;;;;;;;1.80;0.95;;;;;;;21.68;59.94;102093.63;7395477;19;20015;-60
2023/08/11 08:54:15;;;;;;;2.65;1.05;;;;;;;21.77;59.05;102098.09;7394917;19;20025;-60
2023/08/11 08:56:43;;;;;;;1.65;1.05;;;;;;;21.77;58.36;102092.69;7392599;19;20014;-60
2023/08/11 08:59:11;;;;;;;1.98;1.05;;;;;;;21.78;58.59;102097.09;7391661;19;20015;-60
2023/08/11 09:01:38;;;;;;;1.33;1.15;;;;;;;21.77;58.31;102098.09;7394882;19;20025;-60
2023/08/11 09:04:07;;;;;;;2.92;1.20;;;;;;;21.80;59.06;102093.25;7395292;19;20042;-60
2023/08/11 09:06:38;;;;;;;3.35;1.25;;;;;;;21.83;58.51;102101.03;7394099;19;20043;-60
2023/08/11 09:09:08;;;;;;;1.55;1.15;;;;;;;21.89;57.83;102099.56;7391827;19;20402;-60
2023/08/11 09:11:38;;;;;;;3.60;1.23;;;;;;;21.92;57.90;102099.25;7392615;19;20018;-59
2023/08/11 09:14:07;;;;;;;2.58;1.20;;;;;;;21.95;57.77;102101.66;7394598;19;20035;-60
2023/08/11 09:16:36;;;;;;;1.50;1.00;;;;;;;21.99;57.27;102089.53;7392500;19;20014;-61
2023/08/11 09:19:07;;;;;;;1.92;1.15;;;;;;;21.94;57.92;102102.66;7391158;19;20026;-61
2023/08/11 09:21:35;;;;;;;3.17;1.10;;;;;;;22.05;57.89;102096.16;7390631;19;20019;-60
2023/08/11 09:24:04;;;;;;;2.83;1.17;;;;;;;22.14;57.48;102100.66;7391019;19;20039;-60
2023/08/11 09:26:31;;;;;;;2.63;1.20;;;;;;;22.17;57.42;102092.28;7391240;19;20018;-60
2023/08/11 09:28:59;;;;;;;2.70;1.20;;;;;;;22.16;57.58;102090.53;7389373;19;20023;-60
2023/08/11 09:31:26;;;;;;;2.30;1.30;;;;;;;22.14;57.87;102096.13;7392220;19;20535;-60
2023/08/11 09:33:54;;;;;;;1.95;1.30;;;;;;;22.23;57.53;102094.31;7391361;19;20098;-60
2023/08/11 09:36:21;;;;;;;1.25;0.90;;;;;;;22.22;57.21;102094.50;7391571;19;20022;-61
2023/08/11 09:38:49;;;;;;;2.03;1.23;;;;;;;22.18;57.39;102093.13;7389019;19;20026;-59
2023/08/11 09:41:16;;;;;;;1.65;1.10;;;;;;;22.19;57.89;102092.94;7391661;19;20047;-60
2023/08/11 09:43:47;;;;;;;2.78;1.08;;;;;;;22.25;58.39;102094.19;7391791;19;20110;-60
2023/08/11 09:46:15;;;;;;;2.28;1.10;;;;;;;22.39;57.83;102093.59;7387666;19;20019;-58
2023/08/11 09:48:55;;;;;;;5.25;1.38;;;;;;;22.44;56.84;102091.28;7390286;19;20019;-59
2023/08/11 09:51:23;;;;;;;2.03;1.05;;;;;;;22.38;57.58;102089.22;7391344;19;20035;-57
2023/08/11 09:53:52;;;;;;;1.83;1.10;;;;;;;22.45;58.13;102087.56;7391433;19;20452;-57
2023/08/11 09:56:20;;;;;;;4.97;1.15;;;;;;;22.47;57.98;102090.94;7390153;19;20023;-58
2023/08/11 09:58:50;;;;;;;1.20;1.00;;;;;;;22.52;57.58;102094.03;7387610;19;20039;-57
2023/08/11 10:01:19;;;;;;;1.98;1.10;;;;;;;22.47;57.02;102090.94;7390917;19;20117;-58
2023/08/11 10:03:48;;;;;;;2.83;1.20;;;;;;;22.54;56.07;102094.72;7389763;19;20049;-64
2023/08/11 10:06:23;;;;;;;1.67;1.33;;;;;;;22.66;56.44;102100.69;7388882;19;20043;-62
2023/08/11 10:08:51;;;;;;;2.00;1.30;;;;;;;22.68;56.05;102100.56;7389905;19;20048;-60
2023/08/11 10:11:20;;;;;;;4.13;2.00;;;;;;;22.69;55.89;102100.38;7390909;19;20035;-62
2023/08/11 10:13:48;;;;;;;2.00;1.20;;;;;;;22.74;56.13;102089.97;7388612;19;20504;-61
2023/08/11 10:16:16;;;;;;;3.30;1.40;;;;;;;22.77;57.06;102104.97;7390463;19;20360;-58
2023/08/11 10:18:44;;;;;;;1.83;1.10;;;;;;;22.80;56.25;102093.84;7247224;19;2791704;-57
2023/08/11 10:21:12;;;;;;;4.80;1.10;;;;;;;22.81;55.76;102090.13;7392828;19;20042;-58
2023/08/11 10:23:40;;;;;;;1.50;1.10;;;;;;;22.72;56.72;102091.13;7391978;19;20484;-57
2023/08/11 10:26:08;;;;;;;3.00;1.35;;;;;;;22.82;56.06;102092.69;7391463;19;20014;-59
2023/08/11 10:28:36;;;;;;;2.10;1.10;;;;;;;22.88;55.80;102085.78;7390618;19;20011;-60
2023/08/11 10:31:04;;;;;;;2.50;1.23;;;;;;;22.76;56.41;102084.38;7392181;19;20043;-60
2023/08/11 10:33:33;;;;;;;2.67;1.20;;;;;;;22.79;56.79;102086.78;7390043;19;20014;-59
2023/08/11 10:36:02;;;;;;;3.78;1.42;;;;;;;22.94;55.84;102079.78;7389363;19;20029;-60
2023/08/11 10:38:31;;;;;;;3.08;1.55;;;;;;;22.97;56.21;102081.31;7391251;19;20022;-60
2023/08/11 10:41:00;;;;;;;2.55;1.60;;;;;;;22.95;56.09;102075.22;7391207;19;20022;-60
2023/08/11 10:43:41;;;;;;;3.22;1.30;;;;;;;22.93;55.52;102072.66;7391512;19;20026;-60
2023/08/11 10:46:24;;;;;;;2.72;1.33;;;;;;;22.93;55.99;102078.06;7391129;19;20032;-60
2023/08/11 10:48:53;;;;;;;3.92;1.30;;;;;;;22.97;55.90;102071.38;7391105;19;20047;-59
2023/08/11 10:51:24;;;;;;;1.95;1.25;;;;;;;23.06;56.07;102073.06;7390018;19;20038;-59
2023/08/11 10:53:54;;;;;;;2.08;1.38;;;;;;;23.17;55.50;102076.50;7391406;19;20495;-59
2023/08/11 10:56:32;;;;;;;5.32;1.70;;;;;;;23.21;54.35;102076.00;7389318;19;20018;-59
2023/08/11 10:59:08;;;;;;;2.17;1.33;;;;;;;23.14;54.64;102074.13;7390441;19;20120;-59
2023/08/11 11:01:41;;;;;;;2.83;1.48;;;;;;;23.14;55.60;102063.31;7391402;19;20136;-60
2023/08/11 11:04:21;;;;;;;2.25;1.35;;;;;;;23.16;55.57;102064.84;7389605;19;20658;-60
2023/08/11 11:06:53;;;;;;;2.55;1.23;;;;;;;23.23;55.38;102068.56;7390446;19;20015;-60
2023/08/11 11:09:20;;;;;;;2.65;1.40;;;;;;;23.32;55.16;102066.75;7389822;19;20015;-61
2023/08/11 11:11:51;;;;;;;2.47;1.17;;;;;;;23.27;55.46;102067.22;7398855;19;20014;-61
2023/08/11 11:14:19;;;;;;;4.22;1.60;;;;;;;23.28;55.85;102062.69;7399120;19;20043;-60
2023/08/11 11:16:47;;;;;;;3.45;1.40;;;;;;;23.32;55.39;102059.50;7399008;19;20023;-63
2023/08/11 11:19:14;;;;;;;3.83;1.58;;;;;;;23.41;55.43;102048.69;7396649;19;20022;-60
2023/08/11 11:21:42;;;;;;;3.92;1.40;;;;;;;23.46;55.53;102049.88;7398592;19;20029;-60
2023/08/11 11:24:09;;;;;;;3.75;1.40;;;;;;;23.44;55.20;102053.78;7396946;19;20022;-60
2023/08/11 11:26:37;;;;;;;3.25;1.30;;;;;;;23.44;55.40;102046.50;7397791;19;20015;-59
2023/08/11 11:29:05;;;;;;;2.45;1.10;;;;;;;23.57;55.34;102048.72;7396795;19;20019;-59
2023/08/11 11:31:36;;;;;;;2.78;1.33;;;;;;;23.68;54.79;102050.28;7398180;19;20022;-60